Time;durP1;ratioP1;P1;durP2;ratioP2;P2;SDS_P1;SDS_P2;PMS_P1;PMS_P2;Temp;Humidity;BMP_temperature;BMP_pressure;BME280_temperature;BME280_humidity;BME280_pressure;Samples;Min_cycle;Max_cycle;Signal;HPM_P1;HPM_P2
2021/07/07 00:00:42;;;;;;;;;;;;;;;;;;5071341;28;19916;-65
2021/07/07 00:03:08;;;;;;;;;;;;;;;;;;5071368;28;19924;-66
2021/07/07 00:05:33;;;;;;;;;;;;;;;;;;5072491;28;19934;-65
2021/07/07 00:07:58;;;;;;;;;;;;;;;;;;5071856;28;19931;-65
2021/07/07 00:10:23;;;;;;;;;;;;;;;;;;5070483;28;19916;-67
2021/07/07 00:12:49;;;;;;;;;;;;;;;;;;5071158;28;19923;-65
2021/07/07 00:15:16;;;;;;;;;;;;;;;;;;5069753;28;19916;-66
2021/07/07 00:17:41;;;;;;;;;;;;;;;;;;5071519;28;20401;-66
2021/07/07 00:20:08;;;;;;;;;;;;;;;;;;5071572;28;19920;-65
2021/07/07 00:22:33;;;;;;;;;;;;;;;;;;5071913;28;19975;-66
2021/07/07 00:24:58;;;;;;;;;;;;;;;;;;5070495;28;20433;-66
2021/07/07 00:27:24;;;;;;;;;;;;;;;;;;5071754;28;19999;-65
2021/07/07 00:29:50;;;;;;;;;;;;;;;;;;5072251;28;19939;-65
2021/07/07 00:32:18;;;;;;;;;;;;;;;;;;5071290;28;19917;-66
2021/07/07 00:34:43;;;;;;;;;;;;;;;;;;5072119;28;19912;-65
2021/07/07 00:37:08;;;;;;;;;;;;;;;;;;5071681;28;19916;-66
2021/07/07 00:39:33;;;;;;;;;;;;;;;;;;5070687;28;19992;-65
2021/07/07 00:41:58;;;;;;;;;;;;;;;;;;5071078;28;19916;-64
2021/07/07 00:44:24;;;;;;;;;;;;;;;;;;5071927;28;19916;-64
2021/07/07 00:46:49;;;;;;;;;;;;;;;;;;5070074;28;19916;-65
2021/07/07 00:49:16;;;;;;;;;;;;;;;;;;5071865;28;19999;-65
2021/07/07 00:51:41;;;;;;;;;;;;;;;;;;5070629;28;19978;-64
2021/07/07 00:54:08;;;;;;;;;;;;;;;;;;5070504;28;20378;-64
2021/07/07 00:56:36;;;;;;;;;;;;;;;;;;5065601;28;20370;-65
2021/07/07 00:59:03;;;;;;;;;;;;;;;;;;5071260;28;20358;-65
2021/07/07 01:01:28;;;;;;;;;;;;;;;;;;5071155;28;19999;-65
2021/07/07 01:03:53;;;;;;;;;;;;;;;;;;5071501;28;20377;-64
2021/07/07 01:06:18;;;;;;;;;;;;;;;;;;5070928;28;19935;-64
2021/07/07 01:08:44;;;;;;;;;;;;;;;;;;5068303;28;19939;-64
2021/07/07 01:11:09;;;;;;;;;;;;;;;;;;5071763;28;19920;-65
2021/07/07 01:13:34;;;;;;;;;;;;;;;;;;5069965;28;19925;-65
2021/07/07 01:16:02;;;;;;;;;;;;;;;;;;5069454;28;19924;-65
2021/07/07 01:18:28;;;;;;;;;;;;;;;;;;5069797;28;20003;-65
2021/07/07 01:20:53;;;;;;;;;;;;;;;;;;5070882;28;19948;-65
2021/07/07 01:23:18;;;;;;;;;;;;;;;;;;5070392;28;19917;-66
2021/07/07 01:25:44;;;;;;;;;;;;;;;;;;5069628;28;19931;-65
2021/07/07 01:28:09;;;;;;;;;;;;;;;;;;5071001;28;20382;-65
2021/07/07 01:30:34;;;;;;;;;;;;;;;;;;5070428;28;20437;-66
2021/07/07 01:33:00;;;;;;;;;;;;;;;;;;5070978;28;20292;-66
2021/07/07 01:35:25;;;;;;;;;;;;;;;;;;5070559;28;19916;-65
2021/07/07 01:37:51;;;;;;;;;;;;;;;;;;5072457;28;20106;-66
2021/07/07 01:40:21;;;;;;;;;;;;;;;;;;5069084;28;19916;-66
2021/07/07 01:42:46;;;;;;;;;;;;;;;;;;5071113;28;19912;-65
2021/07/07 01:45:12;;;;;;;;;;;;;;;;;;5069595;28;19920;-66
2021/07/07 01:47:38;;;;;;;;;;;;;;;;;;5069946;28;19970;-66
2021/07/07 01:50:04;;;;;;;;;;;;;;;;;;5072566;28;20419;-66
2021/07/07 01:52:29;;;;;;;;;;;;;;;;;;5070726;28;19912;-66
2021/07/07 01:54:55;;;;;;;;;;;;;;;;;;5069870;28;19923;-65
2021/07/07 01:57:20;;;;;;;;;;;;;;;;;;5070521;28;20327;-66
2021/07/07 01:59:45;;;;;;;;;;;;;;;;;;5069783;28;19916;-65
2021/07/07 02:02:10;;;;;;;;;;;;;;;;;;5070647;28;20343;-66
2021/07/07 02:04:35;;;;;;;;;;;;;;;;;;5071017;28;19912;-65
2021/07/07 02:07:01;;;;;;;;;;;;;;;;;;5070372;28;19931;-66
2021/07/07 02:09:26;;;;;;;;;;;;;;;;;;5069196;28;19924;-65
2021/07/07 02:11:51;;;;;;;;;;;;;;;;;;5069575;28;19917;-66
2021/07/07 02:14:17;;;;;;;;;;;;;;;;;;5069575;28;20003;-65
2021/07/07 02:16:42;;;;;;;;;;;;;;;;;;5068751;28;19916;-65
2021/07/07 02:19:07;;;;;;;;;;;;;;;;;;5070379;28;20405;-65
2021/07/07 02:21:32;;;;;;;;;;;;;;;;;;5069879;28;19948;-66
2021/07/07 02:23:57;;;;;;;;;;;;;;;;;;5069530;28;20007;-66
2021/07/07 02:26:23;;;;;;;;;;;;;;;;;;5069487;28;19917;-66
2021/07/07 02:28:48;;;;;;;;;;;;;;;;;;5067451;28;19962;-67
2021/07/07 02:31:13;;;;;;;;;;;;;;;;;;5068582;28;19955;-66
2021/07/07 02:33:38;;;;;;;;;;;;;;;;;;5071708;28;20281;-65
2021/07/07 02:36:05;;;;;;;;;;;;;;;;;;5074392;28;19930;-65
2021/07/07 02:38:31;;;;;;;;;;;;;;;;;;5073228;28;20450;-65
2021/07/07 02:40:57;;;;;;;;;;;;;;;;;;5074097;28;20397;-66
2021/07/07 02:43:22;;;;;;;;;;;;;;;;;;5073620;28;19916;-65
2021/07/07 02:45:47;;;;;;;;;;;;;;;;;;5072983;28;20394;-66
2021/07/07 02:48:13;;;;;;;;;;;;;;;;;;5073366;28;19927;-65
2021/07/07 02:50:39;;;;;;;;;;;;;;;;;;5073200;28;19943;-65
2021/07/07 02:53:06;;;;;;;;;;;;;;;;;;5073341;28;19960;-66
2021/07/07 02:55:32;;;;;;;;;;;;;;;;;;5073581;28;19917;-65
2021/07/07 02:58:01;;;;;;;;;;;;;;;;;;5073515;28;19916;-66
2021/07/07 03:00:29;;;;;;;;;;;;;;;;;;5072364;28;19923;-66
2021/07/07 03:02:55;;;;;;;;;;;;;;;;;;5073552;28;19963;-65
2021/07/07 03:05:20;;;;;;;;;;;;;;;;;;5073972;28;20343;-65
2021/07/07 03:07:45;;;;;;;;;;;;;;;;;;5072965;28;20003;-66
2021/07/07 03:10:11;;;;;;;;;;;;;;;;;;5072612;28;20051;-66
2021/07/07 03:12:36;;;;;;;;;;;;;;;;;;5071360;28;19922;-65
2021/07/07 03:15:02;;;;;;;;;;;;;;;;;;5070704;28;19960;-66
2021/07/07 03:17:28;;;;;;;;;;;;;;;;;;5071902;28;19912;-65
2021/07/07 03:19:53;;;;;;;;;;;;;;;;;;5072909;28;20021;-64
2021/07/07 03:22:19;;;;;;;;;;;;;;;;;;5073257;28;19912;-65
2021/07/07 03:24:44;;;;;;;;;;;;;;;;;;5072129;28;20323;-64
2021/07/07 03:27:09;;;;;;;;;;;;;;;;;;5073271;28;19931;-65
2021/07/07 03:29:35;;;;;;;;;;;;;;;;;;5072439;28;20354;-66
2021/07/07 03:32:00;;;;;;;;;;;;;;;;;;5073018;28;19917;-65
2021/07/07 03:34:25;;;;;;;;;;;;;;;;;;5073098;28;19922;-65
2021/07/07 03:36:50;;;;;;;;;;;;;;;;;;5072451;28;19917;-66
2021/07/07 03:39:15;;;;;;;;;;;;;;;;;;5072796;28;19917;-66
2021/07/07 03:41:41;;;;;;;;;;;;;;;;;;5074143;28;19958;-65
2021/07/07 03:44:06;;;;;;;;;;;;;;;;;;5072350;28;19987;-66
2021/07/07 03:46:31;;;;;;;;;;;;;;;;;;5071588;28;19928;-66
2021/07/07 03:48:56;;;;;;;;;;;;;;;;;;5072451;28;20383;-66
2021/07/07 03:51:21;;;;;;;;;;;;;;;;;;5072492;28;20015;-65
2021/07/07 03:53:47;;;;;;;;;;;;;;;;;;5072455;28;20348;-66
2021/07/07 03:56:12;;;;;;;;;;;;;;;;;;5071999;28;19926;-66
2021/07/07 03:58:37;;;;;;;;;;;;;;;;;;5074605;28;19923;-65
2021/07/07 04:01:02;;;;;;;;;;;;;;;;;;5076555;28;20239;-66
2021/07/07 04:03:27;;;;;;;;;;;;;;;;;;5072454;28;20014;-66
2021/07/07 04:05:52;;;;;;;;;;;;;;;;;;5057550;28;19913;-66
2021/07/07 04:08:18;;;;;;;;;;;;;;;;;;5067915;28;19974;-66
2021/07/07 04:10:44;;;;;;;;;;;;;;;;;;5071967;28;19921;-66
2021/07/07 04:13:09;;;;;;;;;;;;;;;;;;5071933;28;19916;-66
2021/07/07 04:15:34;;;;;;;;;;;;;;;;;;5070620;28;20453;-66
2021/07/07 04:17:59;;;;;;;;;;;;;;;;;;5071425;28;19916;-66
2021/07/07 04:20:24;;;;;;;;;;;;;;;;;;5070981;28;20417;-67
2021/07/07 04:22:50;;;;;;;;;;;;;;;;;;5072061;28;20382;-66
2021/07/07 04:25:15;;;;;;;;;;;;;;;;;;5071611;28;19942;-66
2021/07/07 04:27:41;;;;;;;;;;;;;;;;;;5072156;28;20370;-65
2021/07/07 04:30:08;;;;;;;;;;;;;;;;;;5070712;28;20347;-65
2021/07/07 04:32:33;;;;;;;;;;;;;;;;;;5071916;28;19913;-65
2021/07/07 04:34:59;;;;;;;;;;;;;;;;;;5072187;28;19965;-65
2021/07/07 04:37:24;;;;;;;;;;;;;;;;;;5071121;28;19923;-65
2021/07/07 04:39:49;;;;;;;;;;;;;;;;;;5071497;28;20374;-66
2021/07/07 04:42:14;;;;;;;;;;;;;;;;;;5071538;28;19923;-65
2021/07/07 04:44:39;;;;;;;;;;;;;;;;;;5070268;28;19998;-65
2021/07/07 04:47:05;;;;;;;;;;;;;;;;;;5070738;28;19939;-65
2021/07/07 04:49:30;;;;;;;;;;;;;;;;;;5070172;28;19920;-65
2021/07/07 04:51:55;;;;;;;;;;;;;;;;;;5071391;28;19920;-65
2021/07/07 04:54:20;;;;;;;;;;;;;;;;;;5071064;28;19920;-65
2021/07/07 04:56:45;;;;;;;;;;;;;;;;;;5070696;28;19929;-65
2021/07/07 04:59:11;;;;;;;;;;;;;;;;;;5071583;28;19916;-65
2021/07/07 05:01:38;;;;;;;;;;;;;;;;;;5070851;28;20405;-65
2021/07/07 05:04:03;;;;;;;;;;;;;;;;;;5071469;28;20042;-66
2021/07/07 05:06:29;;;;;;;;;;;;;;;;;;5071531;28;19997;-66
2021/07/07 05:08:54;;;;;;;;;;;;;;;;;;5070810;28;19962;-65
2021/07/07 05:11:19;;;;;;;;;;;;;;;;;;5071609;28;19913;-65
2021/07/07 05:13:45;;;;;;;;;;;;;;;;;;5068498;28;19920;-65
2021/07/07 05:16:11;;;;;;;;;;;;;;;;;;5067618;28;19920;-65
2021/07/07 05:18:36;;;;;;;;;;;;;;;;;;5070511;28;20416;-65
2021/07/07 05:21:02;;;;;;;;;;;;;;;;;;5070746;28;19916;-65
2021/07/07 05:23:27;;;;;;;;;;;;;;;;;;5071250;28;19913;-65
2021/07/07 05:25:52;;;;;;;;;;;;;;;;;;5071474;28;20329;-66
2021/07/07 05:28:18;;;;;;;;;;;;;;;;;;5070694;28;19920;-65
2021/07/07 05:30:44;;;;;;;;;;;;;;;;;;5071094;28;19916;-65
2021/07/07 05:33:09;;;;;;;;;;;;;;;;;;5074403;28;19916;-65
2021/07/07 05:35:38;;;;;;;;;;;;;;;;;;5072227;28;20313;-65
2021/07/07 05:38:04;;;;;;;;;;;;;;;;;;5070688;28;19919;-65
2021/07/07 05:40:29;;;;;;;;;;;;;;;;;;5071423;28;19912;-65
2021/07/07 05:42:54;;;;;;;;;;;;;;;;;;5070822;28;19912;-65
2021/07/07 05:45:20;;;;;;;;;;;;;;;;;;5069831;28;19958;-65
2021/07/07 05:47:45;;;;;;;;;;;;;;;;;;5070755;28;19920;-65
2021/07/07 05:50:10;;;;;;;;;;;;;;;;;;5069133;28;19973;-65
2021/07/07 05:52:36;;;;;;;;;;;;;;;;;;5069307;28;20306;-65
2021/07/07 05:55:01;;;;;;;;;;;;;;;;;;5071726;28;20048;-65
2021/07/07 05:57:37;;;;;;;;;;;;;;;;;;5070011;28;19916;-65
2021/07/07 06:00:07;;;;;;;;;;;;;;;;;;5069824;28;19921;-65
2021/07/07 06:02:32;;;;;;;;;;;;;;;;;;5070975;28;19916;-66
2021/07/07 06:04:58;;;;;;;;;;;;;;;;;;5071274;28;19954;-65
2021/07/07 06:07:23;;;;;;;;;;;;;;;;;;5069481;28;20247;-64
2021/07/07 06:09:48;;;;;;;;;;;;;;;;;;5072965;28;19993;-66
2021/07/07 06:12:13;;;;;;;;;;;;;;;;;;5070704;28;20015;-65
2021/07/07 06:14:38;;;;;;;;;;;;;;;;;;5069110;28;19993;-66
2021/07/07 06:17:03;;;;;;;;;;;;;;;;;;5072595;28;19956;-65
2021/07/07 06:19:29;;;;;;;;;;;;;;;;;;5057411;28;19916;-66
2021/07/07 06:21:57;;;;;;;;;;;;;;;;;;5069609;28;19928;-65
2021/07/07 06:24:22;;;;;;;;;;;;;;;;;;5074463;28;19916;-65
2021/07/07 06:26:47;;;;;;;;;;;;;;;;;;5073404;28;20366;-65
2021/07/07 06:29:14;;;;;;;;;;;;;;;;;;5063110;28;19928;-65
2021/07/07 06:31:39;;;;;;;;;;;;;;;;;;5072824;28;19939;-65
2021/07/07 06:34:05;;;;;;;;;;;;;;;;;;5065331;28;19978;-66
2021/07/07 06:36:30;;;;;;;;;;;;;;;;;;5065319;28;19940;-65
2021/07/07 06:38:55;;;;;;;;;;;;;;;;;;5067942;28;19916;-64
2021/07/07 06:41:20;;;;;;;;;;;;;;;;;;5069510;28;20313;-64
2021/07/07 06:43:45;;;;;;;;;;;;;;;;;;5073712;28;19919;-66
2021/07/07 06:46:11;;;;;;;;;;;;;;;;;;5066358;28;19963;-65
2021/07/07 06:48:36;;;;;;;;;;;;;;;;;;5071280;28;20038;-66
2021/07/07 06:51:02;;;;;;;;;;;;;;;;;;5071623;28;19943;-65
2021/07/07 06:53:27;;;;;;;;;;;;;;;;;;5068800;28;19916;-63
2021/07/07 06:55:52;;;;;;;;;;;;;;;;;;5053849;28;19913;-62
2021/07/07 06:58:18;;;;;;;;;;;;;;;;;;5071398;28;19916;-62
2021/07/07 07:00:43;;;;;;;;;;;;;;;;;;5065688;28;20000;-62
2021/07/07 07:03:08;;;;;;;;;;;;;;;;;;5072119;28;19916;-63
2021/07/07 07:05:34;;;;;;;;;;;;;;;;;;5064837;28;19947;-62
2021/07/07 07:08:00;;;;;;;;;;;;;;;;;;5054160;28;20306;-62
2021/07/07 07:10:25;;;;;;;;;;;;;;;;;;5056836;28;19916;-62
2021/07/07 07:12:50;;;;;;;;;;;;;;;;;;5066920;28;20266;-63
2021/07/07 07:15:15;;;;;;;;;;;;;;;;;;5055690;28;19916;-62
2021/07/07 07:17:41;;;;;;;;;;;;;;;;;;5053189;28;19963;-62
2021/07/07 07:20:08;;;;;;;;;;;;;;;;;;5072274;28;19916;-63
2021/07/07 07:22:33;;;;;;;;;;;;;;;;;;5073162;28;19978;-61
2021/07/07 07:24:58;;;;;;;;;;;;;;;;;;5071015;28;20342;-63
2021/07/07 07:27:24;;;;;;;;;;;;;;;;;;5072723;28;19981;-63
2021/07/07 07:29:49;;;;;;;;;;;;;;;;;;5071969;28;20044;-62
2021/07/07 07:32:14;;;;;;;;;;;;;;;;;;5073160;28;19917;-63
2021/07/07 07:34:40;;;;;;;;;;;;;;;;;;5061611;28;20105;-63
2021/07/07 07:37:06;;;;;;;;;;;;;;;;;;5069841;28;20382;-63
2021/07/07 07:39:44;;;;;;;;;;;;;;;;;;5071313;28;19917;-62
2021/07/07 07:42:11;;;;;;;;;;;;;;;;;;5075604;28;19957;-63
2021/07/07 07:44:37;;;;;;;;;;;;;;;;;;5072581;28;20006;-63
2021/07/07 07:47:02;;;;;;;;;;;;;;;;;;5070000;28;20026;-63
2021/07/07 07:49:27;;;;;;;;;;;;;;;;;;5072508;28;20009;-62
2021/07/07 07:51:53;;;;;;;;;;;;;;;;;;5060998;28;19917;-63
2021/07/07 07:54:18;;;;;;;;;;;;;;;;;;5063469;28;19920;-63
2021/07/07 07:56:43;;;;;;;;;;;;;;;;;;5071734;28;20382;-62
2021/07/07 07:59:09;;;;;;;;;;;;;;;;;;5071994;28;19912;-62
2021/07/07 08:01:34;;;;;;;;;;;;;;;;;;5069508;28;19912;-62
2021/07/07 08:04:03;;;;;;;;;;;;;;;;;;5074607;28;19927;-63
2021/07/07 08:06:28;;;;;;;;;;;;;;;;;;5072405;28;19912;-63
2021/07/07 08:08:54;;;;;;;;;;;;;;;;;;5057727;28;20287;-63
2021/07/07 08:11:19;;;;;;;;;;;;;;;;;;5053447;28;19940;-62
2021/07/07 08:13:45;;;;;;;;;;;;;;;;;;5063185;28;19985;-63
2021/07/07 08:16:10;;;;;;;;;;;;;;;;;;5060789;28;19938;-63
2021/07/07 08:18:35;;;;;;;;;;;;;;;;;;5067760;28;20351;-62
2021/07/07 08:21:00;;;;;;;;;;;;;;;;;;5072229;28;19935;-62
2021/07/07 08:23:25;;;;;;;;;;;;;;;;;;5061754;28;19931;-60
2021/07/07 08:25:52;;;;;;;;;;;;;;;;;;5071352;28;20337;-63
2021/07/07 08:28:17;;;;;;;;;;;;;;;;;;5068261;28;20011;-63
2021/07/07 08:30:42;;;;;;;;;;;;;;;;;;5065226;28;20027;-63
2021/07/07 08:33:08;;;;;;;;;;;;;;;;;;5066253;28;20267;-62
2021/07/07 08:35:37;;;;;;;;;;;;;;;;;;5071761;28;19923;-63
2021/07/07 08:38:02;;;;;;;;;;;;;;;;;;5070001;28;19920;-63
2021/07/07 08:40:28;;;;;;;;;;;;;;;;;;5070125;28;19916;-63
2021/07/07 08:42:54;;;;;;;;;;;;;;;;;;5069935;28;19916;-63
2021/07/07 08:45:19;;;;;;;;;;;;;;;;;;5060070;28;19917;-62
2021/07/07 08:47:45;;;;;;;;;;;;;;;;;;5052612;28;20011;-63
2021/07/07 08:50:12;;;;;;;;;;;;;;;;;;5051449;28;20516;-62
2021/07/07 08:52:38;;;;;;;;;;;;;;;;;;5052285;28;20331;-63
2021/07/07 08:55:04;;;;;;;;;;;;;;;;;;5051332;28;19999;-63
2021/07/07 08:57:29;;;;;;;;;;;;;;;;;;5066211;28;20327;-63
2021/07/07 08:59:54;;;;;;;;;;;;;;;;;;5066434;28;19925;-62
2021/07/07 09:02:20;;;;;;;;;;;;;;;;;;5068013;28;19924;-63
2021/07/07 09:04:46;;;;;;;;;;;;;;;;;;5069944;28;19916;-63
2021/07/07 09:07:14;;;;;;;;;;;;;;;;;;5057596;28;19924;-62
2021/07/07 09:09:41;;;;;;;;;;;;;;;;;;5060967;28;20374;-62
2021/07/07 09:12:12;;;;;;;;;;;;;;;;;;5055454;28;20290;-62
2021/07/07 09:14:37;;;;;;;;;;;;;;;;;;5068286;28;19975;-63
2021/07/07 09:17:09;;;;;;;;;;;;;;;;;;5068914;28;20016;-62
2021/07/07 09:19:37;;;;;;;;;;;;;;;;;;5065367;28;21569;-62
2021/07/07 09:22:06;;;;;;;;;;;;;;;;;;5068483;28;19947;-65
2021/07/07 09:24:32;;;;;;;;;;;;;;;;;;5051289;28;19971;-64
2021/07/07 09:26:58;;;;;;;;;;;;;;;;;;5052328;28;19968;-63
2021/07/07 09:29:42;;;;;;;;;;;;;;;;;;5062923;28;20390;-63
2021/07/07 09:32:14;;;;;;;;;;;;;;;;;;5068474;28;19932;-66
2021/07/07 09:34:39;;;;;;;;;;;;;;;;;;5076162;28;19936;-65
2021/07/07 09:37:06;;;;;;;;;;;;;;;;;;5068755;28;19923;-68
2021/07/07 09:39:32;;;;;;;;;;;;;;;;;;5075456;28;20321;-65
2021/07/07 09:41:57;;;;;;;;;;;;;;;;;;5069946;28;20019;-65
2021/07/07 09:44:22;;;;;;;;;;;;;;;;;;5072377;28;19916;-65
2021/07/07 09:46:48;;;;;;;;;;;;;;;;;;5066175;28;19924;-65
2021/07/07 09:49:13;;;;;;;;;;;;;;;;;;5058916;28;19916;-65
2021/07/07 09:51:45;;;;;;;;;;;;;;;;;;5069690;28;19916;-65
2021/07/07 09:54:10;;;;;;;;;;;;;;;;;;5070690;28;19913;-66
2021/07/07 09:56:35;;;;;;;;;;;;;;;;;;5065527;28;19916;-64
2021/07/07 09:59:01;;;;;;;;;;;;;;;;;;5062167;28;20458;-65
2021/07/07 10:01:26;;;;;;;;;;;;;;;;;;5050549;28;20022;-65
2021/07/07 10:03:51;;;;;;;;;;;;;;;;;;5055264;28;19973;-64
2021/07/07 10:06:17;;;;;;;;;;;;;;;;;;5068649;28;19916;-64
2021/07/07 10:08:43;;;;;;;;;;;;;;;;;;5068377;28;19926;-65
2021/07/07 10:11:08;;;;;;;;;;;;;;;;;;5069831;28;19916;-63
2021/07/07 10:13:33;;;;;;;;;;;;;;;;;;5072347;28;19936;-65
2021/07/07 10:15:58;;;;;;;;;;;;;;;;;;5067365;28;19917;-67
2021/07/07 10:18:24;;;;;;;;;;;;;;;;;;5068813;28;19917;-68
2021/07/07 10:20:49;;;;;;;;;;;;;;;;;;5070047;28;19924;-68
2021/07/07 10:23:15;;;;;;;;;;;;;;;;;;5070490;28;19917;-68
2021/07/07 10:25:42;;;;;;;;;;;;;;;;;;5078967;28;19924;-67
2021/07/07 10:28:08;;;;;;;;;;;;;;;;;;5059535;28;20355;-67
2021/07/07 10:30:47;;;;;;;;;;;;;;;;;;5051574;28;19913;-67
2021/07/07 10:33:12;;;;;;;;;;;;;;;;;;5062994;28;19927;-62
2021/07/07 10:35:39;;;;;;;;;;;;;;;;;;5069825;28;20297;-62
2021/07/07 10:38:05;;;;;;;;;;;;;;;;;;5070121;28;19919;-63
2021/07/07 10:40:31;;;;;;;;;;;;;;;;;;5069819;28;19913;-62
2021/07/07 10:42:56;;;;;;;;;;;;;;;;;;5070256;28;19951;-61
2021/07/07 10:45:31;;;;;;;;;;;;;;;;;;5068475;28;19927;-63
2021/07/07 10:48:32;;;;;;;;;;;;;;;;;;5050542;28;19970;-63
2021/07/07 10:51:20;;;;;;;;;;;;;;;;;;5014367;28;19921;-60
2021/07/07 10:53:45;;;;;;;;;;;;;;;;;;5067873;28;20367;-59
2021/07/07 10:56:10;;;;;;;;;;;;;;;;;;5058455;28;19916;-62
2021/07/07 10:58:37;;;;;;;;;;;;;;;;;;5081434;28;19916;-63
2021/07/07 11:01:22;;;;;;;;;;;;;;;;;;5094358;28;19916;-61
2021/07/07 11:04:01;;;;;;;;;;;;;;;;;;5077253;28;19939;-61
2021/07/07 11:06:27;;;;;;;;;;;;;;;;;;5073544;28;19913;-62
2021/07/07 11:09:12;;;;;;;;;;;;;;;;;;5073680;28;20314;-62
2021/07/07 11:11:38;;;;;;;;;;;;;;;;;;5074125;28;20323;-63
2021/07/07 11:14:10;;;;;;;;;;;;;;;;;;5074198;28;19916;-62
2021/07/07 11:16:43;;;;;;;;;;;;;;;;;;5092635;28;19916;-62
2021/07/07 11:19:28;;;;;;;;;;;;;;;;;;5093806;28;20345;-62
2021/07/07 11:21:53;;;;;;;;;;;;;;;;;;5093580;28;19916;-63
2021/07/07 11:24:19;;;;;;;;;;;;;;;;;;5093691;28;19912;-62
2021/07/07 11:26:45;;;;;;;;;;;;;;;;;;5088455;28;19917;-62
2021/07/07 11:29:10;;;;;;;;;;;;;;;;;;5076226;28;20343;-63
2021/07/07 11:31:35;;;;;;;;;;;;;;;;;;5072801;28;19928;-63
2021/07/07 11:34:01;;;;;;;;;;;;;;;;;;5072589;28;19917;-62
2021/07/07 11:36:26;;;;;;;;;;;;;;;;;;5072069;28;19946;-63
2021/07/07 11:39:01;;;;;;;;;;;;;;;;;;5071268;28;19920;-63
2021/07/07 11:41:27;;;;;;;;;;;;;;;;;;5061333;28;20502;-59
2021/07/07 11:43:52;;;;;;;;;;;;;;;;;;5071484;28;19917;-62
2021/07/07 11:46:17;;;;;;;;;;;;;;;;;;5078390;28;20557;-63
2021/07/07 11:48:47;;;;;;;;;;;;;;;;;;5076972;28;20253;-65
2021/07/07 11:51:19;;;;;;;;;;;;;;;;;;5079619;28;19927;-62
2021/07/07 11:53:49;;;;;;;;;;;;;;;;;;5073732;28;20009;-64
2021/07/07 11:56:16;;;;;;;;;;;;;;;;;;5068609;28;20006;-64
2021/07/07 11:58:44;;;;;;;;;;;;;;;;;;5077076;28;19924;-65
2021/07/07 12:01:12;;;;;;;;;;;;;;;;;;5065119;28;19962;-63
2021/07/07 12:03:37;;;;;;;;;;;;;;;;;;5070618;28;19985;-64
2021/07/07 12:06:10;;;;;;;;;;;;;;;;;;5070142;28;19917;-64
2021/07/07 12:08:39;;;;;;;;;;;;;;;;;;5061138;28;19928;-63
2021/07/07 12:11:07;;;;;;;;;;;;;;;;;;5086689;28;19917;-65
2021/07/07 12:13:33;;;;;;;;;;;;;;;;;;5081884;28;20003;-64
2021/07/07 12:16:17;;;;;;;;;;;;;;;;;;5078869;28;19948;-63
2021/07/07 12:18:43;;;;;;;;;;;;;;;;;;5075402;28;19965;-63
2021/07/07 12:21:09;;;;;;;;;;;;;;;;;;5081777;28;19970;-64
2021/07/07 12:23:47;;;;;;;;;;;;;;;;;;5082209;28;19920;-64
2021/07/07 12:26:17;;;;;;;;;;;;;;;;;;5075179;28;19956;-63
2021/07/07 12:28:42;;;;;;;;;;;;;;;;;;5079066;28;19936;-64
2021/07/07 12:31:08;;;;;;;;;;;;;;;;;;5074061;28;19917;-64
2021/07/07 12:33:33;;;;;;;;;;;;;;;;;;5077678;28;19912;-64
2021/07/07 12:35:59;;;;;;;;;;;;;;;;;;5065467;28;19916;-64
2021/07/07 12:38:24;;;;;;;;;;;;;;;;;;5076297;28;19920;-64
2021/07/07 12:40:54;;;;;;;;;;;;;;;;;;5075359;28;19936;-65
2021/07/07 12:43:27;;;;;;;;;;;;;;;;;;5088999;28;19916;-65
2021/07/07 12:46:01;;;;;;;;;;;;;;;;;;5077996;28;19974;-65
2021/07/07 12:48:26;;;;;;;;;;;;;;;;;;5071999;28;20274;-63
2021/07/07 12:50:51;;;;;;;;;;;;;;;;;;5074535;28;19920;-64
2021/07/07 12:53:30;;;;;;;;;;;;;;;;;;5083598;28;20053;-64
2021/07/07 12:56:04;;;;;;;;;;;;;;;;;;5074732;28;19917;-62
2021/07/07 12:58:29;;;;;;;;;;;;;;;;;;5083971;28;19924;-62
2021/07/07 13:00:55;;;;;;;;;;;;;;;;;;5086286;28;19916;-62
2021/07/07 13:03:31;;;;;;;;;;;;;;;;;;5074070;28;19912;-62
2021/07/07 13:06:00;;;;;;;;;;;;;;;;;;5078408;28;19917;-62
2021/07/07 13:08:32;;;;;;;;;;;;;;;;;;5084830;28;19975;-63
2021/07/07 13:10:57;;;;;;;;;;;;;;;;;;5081219;28;20353;-63
2021/07/07 13:13:32;;;;;;;;;;;;;;;;;;5083679;28;19956;-63
2021/07/07 13:16:02;;;;;;;;;;;;;;;;;;5073048;28;19955;-63
2021/07/07 13:18:28;;;;;;;;;;;;;;;;;;5074956;28;19917;-63
2021/07/07 13:20:59;;;;;;;;;;;;;;;;;;5086810;28;20403;-63
2021/07/07 13:23:26;;;;;;;;;;;;;;;;;;5077883;28;19916;-64
2021/07/07 13:25:51;;;;;;;;;;;;;;;;;;5074653;28;19916;-63
2021/07/07 13:28:27;;;;;;;;;;;;;;;;;;5080272;28;20378;-63
2021/07/07 13:30:52;;;;;;;;;;;;;;;;;;5059088;28;19916;-63
2021/07/07 13:33:18;;;;;;;;;;;;;;;;;;5082347;28;20015;-63
2021/07/07 13:35:43;;;;;;;;;;;;;;;;;;5079127;28;19912;-64
2021/07/07 13:38:09;;;;;;;;;;;;;;;;;;5081789;28;19934;-64
2021/07/07 13:40:34;;;;;;;;;;;;;;;;;;5071625;28;19920;-63
2021/07/07 13:42:59;;;;;;;;;;;;;;;;;;5085330;28;19913;-64
2021/07/07 13:45:25;;;;;;;;;;;;;;;;;;5078661;28;19969;-63
2021/07/07 13:47:50;;;;;;;;;;;;;;;;;;5075543;28;19991;-63
2021/07/07 13:50:15;;;;;;;;;;;;;;;;;;5070235;28;20243;-63
2021/07/07 13:52:41;;;;;;;;;;;;;;;;;;5077721;28;19930;-62
2021/07/07 13:55:06;;;;;;;;;;;;;;;;;;5074072;28;19955;-65
2021/07/07 13:57:31;;;;;;;;;;;;;;;;;;5068137;28;19920;-64
2021/07/07 13:59:56;;;;;;;;;;;;;;;;;;5083489;28;20509;-64
2021/07/07 14:02:22;;;;;;;;;;;;;;;;;;5073165;28;20396;-63
2021/07/07 14:04:48;;;;;;;;;;;;;;;;;;5075261;28;19917;-64
2021/07/07 14:07:13;;;;;;;;;;;;;;;;;;5073790;28;19936;-64
2021/07/07 14:09:38;;;;;;;;;;;;;;;;;;5068380;28;19917;-64
2021/07/07 14:12:04;;;;;;;;;;;;;;;;;;5073226;28;19920;-64
2021/07/07 14:14:32;;;;;;;;;;;;;;;;;;5081440;28;19923;-65
2021/07/07 14:16:58;;;;;;;;;;;;;;;;;;5072144;28;20412;-63
2021/07/07 14:19:23;;;;;;;;;;;;;;;;;;5071304;28;19955;-64
2021/07/07 14:21:49;;;;;;;;;;;;;;;;;;5081173;28;19955;-64
2021/07/07 14:24:14;;;;;;;;;;;;;;;;;;5073727;28;19954;-64
2021/07/07 14:26:39;;;;;;;;;;;;;;;;;;5086979;28;19912;-64
2021/07/07 14:29:04;;;;;;;;;;;;;;;;;;5068972;28;19920;-63
2021/07/07 14:31:30;;;;;;;;;;;;;;;;;;5083574;28;19912;-64
2021/07/07 14:33:56;;;;;;;;;;;;;;;;;;5079193;28;19916;-63
2021/07/07 14:36:21;;;;;;;;;;;;;;;;;;5073545;28;20018;-64
2021/07/07 14:38:47;;;;;;;;;;;;;;;;;;5076117;28;19919;-64
2021/07/07 14:41:12;;;;;;;;;;;;;;;;;;5091012;28;19920;-64
2021/07/07 14:43:39;;;;;;;;;;;;;;;;;;5083677;28;19981;-64
2021/07/07 14:46:04;;;;;;;;;;;;;;;;;;5072662;28;19936;-64
2021/07/07 14:48:31;;;;;;;;;;;;;;;;;;5075137;28;19927;-64
2021/07/07 14:50:56;;;;;;;;;;;;;;;;;;5082903;28;19923;-64
2021/07/07 14:53:23;;;;;;;;;;;;;;;;;;5088449;28;19928;-63
2021/07/07 14:55:48;;;;;;;;;;;;;;;;;;5087249;28;20015;-64
2021/07/07 14:58:14;;;;;;;;;;;;;;;;;;5071397;28;19960;-65
2021/07/07 15:00:39;;;;;;;;;;;;;;;;;;5089886;28;19955;-65
2021/07/07 15:03:04;;;;;;;;;;;;;;;;;;5072444;28;19938;-64
2021/07/07 15:05:29;;;;;;;;;;;;;;;;;;5073983;28;19938;-63
2021/07/07 15:07:55;;;;;;;;;;;;;;;;;;5078720;28;19966;-65
2021/07/07 15:10:20;;;;;;;;;;;;;;;;;;5072913;28;19917;-63
2021/07/07 15:12:45;;;;;;;;;;;;;;;;;;5085111;28;19919;-64
2021/07/07 15:15:11;;;;;;;;;;;;;;;;;;5084312;28;19916;-63
2021/07/07 15:17:36;;;;;;;;;;;;;;;;;;5074442;28;19978;-63
2021/07/07 15:20:03;;;;;;;;;;;;;;;;;;5063498;28;19964;-64
2021/07/07 15:22:28;;;;;;;;;;;;;;;;;;5077670;28;19977;-63
2021/07/07 15:24:53;;;;;;;;;;;;;;;;;;5070744;28;20386;-63
2021/07/07 15:27:18;;;;;;;;;;;;;;;;;;5078502;28;19920;-63
2021/07/07 15:29:44;;;;;;;;;;;;;;;;;;5073036;28;20382;-63
2021/07/07 15:32:09;;;;;;;;;;;;;;;;;;5070753;28;19922;-63
2021/07/07 15:34:34;;;;;;;;;;;;;;;;;;5068656;28;20591;-64
2021/07/07 15:36:59;;;;;;;;;;;;;;;;;;5074412;28;19927;-63
2021/07/07 15:39:25;;;;;;;;;;;;;;;;;;5083371;28;20426;-63
2021/07/07 15:41:50;;;;;;;;;;;;;;;;;;5084673;28;19916;-64
2021/07/07 15:44:15;;;;;;;;;;;;;;;;;;5076802;28;19995;-64
2021/07/07 15:46:40;;;;;;;;;;;;;;;;;;5086510;28;20484;-64
2021/07/07 15:49:06;;;;;;;;;;;;;;;;;;5078296;28;20370;-63
2021/07/07 15:51:31;;;;;;;;;;;;;;;;;;5082792;28;20155;-63
2021/07/07 15:53:57;;;;;;;;;;;;;;;;;;5085176;28;19916;-63
2021/07/07 15:56:22;;;;;;;;;;;;;;;;;;5075665;28;19916;-64
2021/07/07 15:58:47;;;;;;;;;;;;;;;;;;5088707;28;19912;-64
2021/07/07 16:01:12;;;;;;;;;;;;;;;;;;5079536;28;19957;-65
2021/07/07 16:03:37;;;;;;;;;;;;;;;;;;5081316;28;19912;-64
2021/07/07 16:06:03;;;;;;;;;;;;;;;;;;5086245;28;20210;-64
2021/07/07 16:08:28;;;;;;;;;;;;;;;;;;5075082;28;19917;-65
2021/07/07 16:10:54;;;;;;;;;;;;;;;;;;5087700;28;19920;-64
2021/07/07 16:13:19;;;;;;;;;;;;;;;;;;5080037;28;19924;-64
2021/07/07 16:15:44;;;;;;;;;;;;;;;;;;5081422;28;19919;-64
2021/07/07 16:18:09;;;;;;;;;;;;;;;;;;5072988;28;19912;-64
2021/07/07 16:20:35;;;;;;;;;;;;;;;;;;5088977;28;19919;-64
2021/07/07 16:23:00;;;;;;;;;;;;;;;;;;5077339;28;19916;-65
2021/07/07 16:25:28;;;;;;;;;;;;;;;;;;5083346;28;20444;-64
2021/07/07 16:27:57;;;;;;;;;;;;;;;;;;5080251;28;19928;-65
2021/07/07 16:30:23;;;;;;;;;;;;;;;;;;5076415;28;20397;-64
2021/07/07 16:32:49;;;;;;;;;;;;;;;;;;5076951;28;19962;-68
2021/07/07 16:35:14;;;;;;;;;;;;;;;;;;5072651;28;20332;-65
2021/07/07 16:37:39;;;;;;;;;;;;;;;;;;5072919;28;19991;-64
2021/07/07 16:40:05;;;;;;;;;;;;;;;;;;5064373;28;20004;-64